CheckWX is a tool to help pilots better visualize weather data.  It is not intended as a substitute for an official pre-flight weather briefing.

17:00:34 UTC

CYCG TAF
Castlegar / West Kootenay Regional Airport
Castlegar, Canada
TAF CYCG 181438Z 1815/1903 VRB03KT P6SM SKC FM181900 31007KT P6SM SCT090 BECMG 1823/1901 22006KT RMK NXT FCST BY 181900Z

Jun-18@
15:00 UTC

Jun-18 @ 15:00 UTC

Jun-18@
19:00 UTC

Jun-18 @ 19:00 UTC

TAF CYCG 181438Z 1815/1903 VRB03KT P6SM SKC
Wind
  • Variable at 3 KTS
Cloud Levels
  • Clear skies

Jun-18@
19:00 UTC

Jun-18 @ 19:00 UTC

Jun-18@
23:00 UTC

Jun-18 @ 23:00 UTC

FM181900 31007KT P6SM SCT090

From

From Standard forecast or significant change

Wind
  • 310° at 7 KTS
Cloud Levels
  • Scattered at 9,000' AGL

Jun-18@
23:00 UTC

Jun-18 @ 23:00 UTC

Jun-19@
03:00 UTC

Jun-19 @ 03:00 UTC

BECMG 1823/1901 22006KT RMK NXT FCST BY 181900Z

Becoming

Becoming Conditions expected by Wed, Jun 19, 2019 @ 01:00 UTC

Wind
  • 220° at 6 KTS
Cloud Levels
  • Scattered at 9,000' AGL